KARB/ARB METAR and TAF weather

Enter ICAO airport designator
Station Type Date Time Source
KARB METAR 2019/08/21 21:53 UTC NOAA

KARB 212153Z 27013G17KT 10SM CLR 29/19 A2990 RMK AO2 SLP119 T02890194


Station Type Date Time Source
KARB Decoded METAR 2019/08/21 21:53 UTC NOAA

Station name not available
Aug 21, 2019 - 05:53 PM EDT / 2019.08.21 2153 UTC
Wind: from the W (270 degrees) at 15 MPH (13 KT) gusting to 20 MPH (17 KT):0
Visibility: 10 mile(s):0
Sky conditions: clear
Temperature: 84.0 F (28.9 C)
Dew Point: 66.9 F (19.4 C)
Relative Humidity: 56%
Pressure (altimeter): 29.9 in. Hg (1012 hPa)
ob: KARB 212153Z 27013G17KT 10SM CLR 29/19 A2990 RMK AO2 SLP119 T02890194
cycle: 22

Station Type Date Time Source
KARB TAF UTC NOAA

Error!

Example: see airport list